Terminal Aerodrome Forecast
Issued by NWS

Home | Current Version | Previous Version | Text Only | Print | Product List | Glossary On
Versions: 1 2 3 4 5 6 7 8 9 10 11 12 13 14 15 16 17 18 19
000
FTAK31 PAJN 192122 AAB
TAFAYA
TAF AMD
PAYA 192122Z 1921/2018 13015G25KT 5SM -RA BR OVC015
      TEMPO 1921/2001 2SM -RA BR BKN009 OVC015
     FM200300 12012KT 6SM -SHRA BR SCT015 OVC025
     FM201200 14007KT P6SM -SHRA OVC050
      AMD LTD TO CLD VIS AND WIND=

USA.gov is the U.S. government's official web portal to all federal, state and local government web resources and services.